Time;durP1;ratioP1;P1;durP2;ratioP2;P2;SDS_P1;SDS_P2;PMS_P1;PMS_P2;Temp;Humidity;BMP_temperature;BMP_pressure;BME280_temperature;BME280_humidity;BME280_pressure;Samples;Min_cycle;Max_cycle;Signal;HPM_P1;HPM_P2
2022/03/02 00:03:02;;;;;;;46.83;28.92;;;;;;;0.42;84.65;98279.13;10461647;28;20116;-62
2022/03/02 00:08:01;;;;;;;48.00;29.88;;;;;;;0.36;84.63;98279.72;10460968;28;20500;-62
2022/03/02 00:12:59;;;;;;;41.33;27.23;;;;;;;0.27;84.67;98275.06;10453173;28;20506;-61
2022/03/02 00:17:58;;;;;;;43.88;28.50;;;;;;;-0.13;85.08;98208.50;10419395;28;20035;-62
2022/03/02 00:22:57;;;;;;;44.70;28.23;;;;;;;0.17;85.15;98249.00;10418470;28;20064;-62
2022/03/02 00:27:56;;;;;;;38.42;24.35;;;;;;;-0.08;84.44;98207.03;10418622;28;20035;-62
2022/03/02 00:32:56;;;;;;;36.03;21.75;;;;;;;0.16;84.66;98245.59;10418353;28;20095;-62
2022/03/02 00:37:55;;;;;;;34.13;21.17;;;;;;;-0.09;84.64;98196.75;10417915;28;20083;-62
2022/03/02 00:42:54;;;;;;;39.88;23.33;;;;;;;0.01;84.84;98225.34;10418305;28;20064;-62
2022/03/02 00:47:53;;;;;;;44.35;26.52;;;;;;;0.03;85.08;98227.94;10452140;28;20032;-62
2022/03/02 00:52:52;;;;;;;;;;;;;;;0.01;84.98;98217.69;10459708;28;20062;-62
2022/03/02 00:57:51;;;;;;;54.63;32.47;;;;;;;-0.16;84.79;98188.81;10460352;28;19951;-62
2022/03/02 01:02:50;;;;;;;58.75;35.65;;;;;;;-0.44;85.59;98150.91;10458337;28;20067;-62
2022/03/02 01:07:50;;;;;;;59.55;36.53;;;;;;;-0.40;85.75;98185.06;10458767;28;20071;-62
2022/03/02 01:12:49;;;;;;;51.42;33.75;;;;;;;-0.28;86.17;98212.84;10458468;28;20051;-62
2022/03/02 01:17:48;;;;;;;57.38;34.25;;;;;;;-0.31;86.77;98202.50;10424996;28;20056;-62
2022/03/02 01:22:48;;;;;;;54.97;34.55;;;;;;;-0.48;86.37;98166.84;10416251;28;20060;-62
2022/03/02 01:27:47;;;;;;;56.65;35.38;;;;;;;-0.39;86.75;98190.25;10416740;28;20056;-62
2022/03/02 01:32:46;;;;;;;58.25;33.65;;;;;;;-0.37;86.93;98182.66;10414506;28;20052;-62
2022/03/02 01:37:45;;;;;;;;;;;;;;;-0.35;86.87;98177.66;10416424;28;20091;-62
2022/03/02 01:42:44;;;;;;;48.15;28.90;;;;;;;-0.48;86.53;98182.16;10414868;28;19912;-61
2022/03/02 01:47:44;;;;;;;;;;;;;;;-0.58;86.77;98177.38;10433565;28;20064;-62
2022/03/02 01:52:43;;;;;;;38.10;22.35;;;;;;;-0.71;87.11;98172.50;10456456;28;19958;-62
2022/03/02 01:57:43;;;;;;;;;;;;;;;-0.79;86.35;98169.53;10457597;28;20485;-61
2022/03/02 02:02:42;;;;;;;105.22;50.85;;;;;;;-1.02;86.22;98141.25;10456479;28;19955;-61
2022/03/02 02:07:42;;;;;;;65.03;33.72;;;;;;;-1.38;86.56;98109.69;10456512;28;20071;-61
2022/03/02 02:12:41;;;;;;;;;;;;;;;-1.13;86.79;98162.75;10456956;28;20055;-61
2022/03/02 02:17:41;;;;;;;108.78;51.00;;;;;;;-1.18;86.89;98158.25;10437732;28;19951;-61
2022/03/02 02:22:43;;;;;;;515.95;213.45;;;;;;;-1.51;87.42;98137.88;10414314;28;20517;-61
2022/03/02 02:27:46;;;;;;;366.80;154.90;;;;;;;-1.41;87.40;98155.38;10413798;28;20099;-61
2022/03/02 02:32:45;;;;;;;385.00;165.73;;;;;;;-1.30;87.24;98159.34;10412517;28;20064;-61
2022/03/02 02:37:44;;;;;;;158.07;105.65;;;;;;;-1.94;87.67;98044.03;10414243;28;20091;-61
2022/03/02 02:42:48;;;;;;;42.92;24.98;;;;;;;-1.62;88.08;98100.81;10413329;28;20384;-61
2022/03/02 02:47:49;;;;;;;41.25;26.77;;;;;;;-1.47;88.06;98139.75;10415217;28;20067;-61
2022/03/02 02:52:49;;;;;;;56.08;34.30;;;;;;;-1.43;88.08;98128.94;10455203;28;20056;-61
2022/03/02 02:57:48;;;;;;;35.42;22.00;;;;;;;-1.63;87.95;98079.59;10454617;28;20064;-61
2022/03/02 03:02:50;;;;;;;33.50;20.88;;;;;;;-1.14;88.51;98148.28;10455050;28;20501;-61
2022/03/02 03:07:50;;;;;;;37.25;21.90;;;;;;;-1.18;88.28;98138.72;10455001;28;20472;-61
2022/03/02 03:12:49;;;;;;;43.65;25.70;;;;;;;-1.01;88.39;98148.09;10453138;28;20091;-61
2022/03/02 03:17:49;;;;;;;39.90;23.80;;;;;;;-0.90;88.23;98148.66;10454015;28;20063;-61
2022/03/02 03:22:48;;;;;;;37.83;22.55;;;;;;;-1.03;87.97;98151.38;10412354;28;20067;-61
2022/03/02 03:27:49;;;;;;;36.25;21.60;;;;;;;-1.54;88.51;98067.34;10416837;28;20102;-61
2022/03/02 03:32:49;;;;;;;36.15;21.67;;;;;;;-0.97;88.42;98149.13;10420925;28;20052;-62
2022/03/02 03:37:49;;;;;;;35.88;21.27;;;;;;;-1.18;88.17;98113.28;10420537;28;20083;-61
2022/03/02 03:42:50;;;;;;;31.60;18.77;;;;;;;-0.90;88.34;98129.94;10420787;28;20056;-61
2022/03/02 03:47:49;;;;;;;30.65;19.08;;;;;;;-0.95;87.74;98116.06;10420236;28;20172;-61
2022/03/02 03:52:48;;;;;;;;;;;;;;;-0.83;87.74;98126.91;10446768;28;20059;-61
2022/03/02 03:57:47;;;;;;;49.67;26.77;;;;;;;-0.80;87.62;98120.25;10461398;28;19904;-61
2022/03/02 04:02:47;;;;;;;66.18;29.38;;;;;;;-0.76;87.23;98118.75;10461638;28;20468;-61
2022/03/02 04:07:47;;;;;;;36.05;20.27;;;;;;;-0.99;87.32;98060.72;10460886;28;20897;-61
2022/03/02 04:12:46;;;;;;;37.10;20.83;;;;;;;-0.67;87.20;98105.59;10459349;28;20493;-61
2022/03/02 04:17:46;;;;;;;46.53;29.05;;;;;;;-0.66;86.85;98104.78;10461055;28;20456;-61
2022/03/02 04:22:45;;;;;;;53.63;29.27;;;;;;;-1.02;86.57;98109.84;10447336;28;20066;-61
2022/03/02 04:27:44;;;;;;;52.15;31.40;;;;;;;-1.87;86.27;97985.94;10461349;28;20036;-61
2022/03/02 04:32:43;;;;;;;42.17;24.52;;;;;;;-1.29;86.61;98115.25;10460128;28;20059;-61
2022/03/02 04:37:42;;;;;;;;;;;;;;;-1.46;86.91;98105.91;10459657;28;20513;-61
2022/03/02 04:42:42;;;;;;;42.50;24.52;;;;;;;-1.49;87.21;98098.13;10459869;28;20274;-61
2022/03/02 04:47:42;;;;;;;42.15;23.90;;;;;;;-2.23;87.84;97963.69;10459741;28;20066;-61
2022/03/02 04:52:41;;;;;;;41.63;25.40;;;;;;;-1.41;87.87;98079.00;10441889;28;20533;-61
2022/03/02 04:57:52;;;;;;;50.47;28.25;;;;;;;-1.13;87.82;98098.22;10418074;28;20063;-61
2022/03/02 05:02:51;;;;;;;45.65;27.60;;;;;;;-0.99;87.31;98104.00;10437464;28;20068;-61
2022/03/02 05:07:51;;;;;;;48.03;29.35;;;;;;;-0.93;87.39;98082.28;10459066;28;20087;-61
2022/03/02 05:12:50;;;;;;;52.80;29.88;;;;;;;-0.77;87.29;98085.53;10457410;28;20129;-61
2022/03/02 05:17:49;;;;;;;54.45;31.52;;;;;;;-0.98;87.47;98060.75;10456683;28;20067;-61
2022/03/02 05:22:49;;;;;;;53.00;31.10;;;;;;;-0.71;87.18;98080.75;10428410;28;20071;-61
2022/03/02 05:27:50;;;;;;;61.60;34.80;;;;;;;-0.69;87.30;98074.94;10458591;28;20062;-61
2022/03/02 05:32:49;;;;;;;55.92;32.70;;;;;;;-0.67;87.10;98070.78;10457908;28;20549;-61
2022/03/02 05:37:48;;;;;;;64.30;37.80;;;;;;;-1.62;87.18;97959.19;10454836;28;20090;-61
2022/03/02 05:42:47;;;;;;;82.63;47.28;;;;;;;-1.27;87.84;98022.00;10417705;28;20578;-62
2022/03/02 05:47:46;;;;;;;88.95;52.60;;;;;;;-0.89;87.82;98060.34;10457028;28;20058;-62
2022/03/02 05:52:45;;;;;;;85.80;51.42;;;;;;;-0.77;88.13;98075.34;10455602;28;20050;-62
2022/03/02 05:57:44;;;;;;;91.72;53.75;;;;;;;-0.65;87.79;98087.03;10438421;28;20060;-62
2022/03/02 06:02:43;;;;;;;96.47;58.05;;;;;;;-1.11;87.75;97989.69;10424429;28;20397;-62
2022/03/02 06:07:42;;;;;;;82.90;47.80;;;;;;;-0.25;87.06;98078.72;10450498;28;20039;-62
2022/03/02 06:12:41;;;;;;;68.60;40.05;;;;;;;-0.25;87.05;98083.81;10425216;28;20401;-62
2022/03/02 06:17:41;;;;;;;;;;;;;;;-0.18;86.94;98085.84;10455680;28;20059;-62
2022/03/02 06:22:40;;;;;;;61.95;36.72;;;;;;;-0.10;86.53;98078.53;10440652;28;19944;-62
2022/03/02 06:27:39;;;;;;;92.55;51.97;;;;;;;-0.38;86.82;98036.47;10413432;28;20064;-62
2022/03/02 06:32:39;;;;;;;58.85;35.35;;;;;;;-0.22;86.06;98062.69;10419812;28;20086;-61
2022/03/02 06:37:38;;;;;;;;;;;;;;;-0.08;85.76;98071.84;10454741;28;20072;-61
2022/03/02 06:42:57;;;;;;;64.82;36.92;;;;;;;-0.12;85.96;98069.94;10455299;28;19911;-61
2022/03/02 06:48:21;;;;;;;83.00;52.93;;;;;;;-0.19;85.82;98073.00;10455455;28;20056;-61
2022/03/02 06:53:30;;;;;;;73.72;44.63;;;;;;;-0.44;86.54;98059.13;10434485;28;20322;-61
2022/03/02 06:58:49;;;;;;;;;;;;;;;-0.17;86.82;98064.63;10412600;28;20063;-61
2022/03/02 07:03:56;;;;;;;65.40;38.25;;;;;;;0.16;86.08;98066.97;10427449;28;19952;-61
2022/03/02 07:08:56;;;;;;;71.95;43.40;;;;;;;0.21;85.76;98064.59;10412266;28;20471;-61
2022/03/02 07:13:54;;;;;;;;;;;;;;;0.31;83.87;98051.47;10414249;28;20459;-61
2022/03/02 07:18:53;;;;;;;69.82;40.92;;;;;;;0.54;85.09;98044.78;10414180;28;20368;-61
2022/03/02 07:24:04;;;;;;;71.97;44.15;;;;;;;0.86;84.20;98048.69;10455082;28;20367;-62
2022/03/02 07:29:07;;;;;;;80.78;46.75;;;;;;;0.57;83.19;97973.44;10454973;28;20067;-61
2022/03/02 07:34:10;;;;;;;66.38;41.75;;;;;;;1.00;82.11;98027.97;10430242;28;20498;-61
2022/03/02 07:39:10;;;;;;;64.97;42.53;;;;;;;0.96;83.10;98033.75;10425297;28;20134;-61
2022/03/02 07:44:10;;;;;;;67.38;42.50;;;;;;;1.21;82.15;98021.16;10445940;28;20075;-61
2022/03/02 07:49:09;;;;;;;66.53;41.05;;;;;;;1.33;81.63;98015.66;10449826;28;20063;-61
2022/03/02 07:54:09;;;;;;;67.30;42.65;;;;;;;1.68;80.47;98005.91;10453123;28;20098;-62
2022/03/02 07:59:08;;;;;;;72.63;46.97;;;;;;;2.04;79.81;98014.06;10454012;28;20067;-62
2022/03/02 08:04:09;;;;;;;62.72;40.65;;;;;;;2.13;77.59;98006.72;10454222;28;20060;-62
2022/03/02 08:09:11;;;;;;;61.25;40.13;;;;;;;2.28;77.02;98003.00;10454167;28;20060;-62
2022/03/02 08:14:10;;;;;;;65.90;42.30;;;;;;;2.18;78.45;97983.84;10442775;28;20083;-63
2022/03/02 08:19:09;;;;;;;66.80;43.70;;;;;;;2.52;77.15;98001.28;10453997;28;20028;-62
2022/03/02 08:24:09;;;;;;;77.25;49.08;;;;;;;2.64;77.45;98008.53;10461507;28;20085;-62
2022/03/02 08:29:11;;;;;;;76.47;49.40;;;;;;;2.81;76.23;98001.41;10461048;28;20059;-62
2022/03/02 08:34:10;;;;;;;80.72;52.85;;;;;;;3.01;75.16;97994.38;10436875;28;20056;-62
2022/03/02 08:39:11;;;;;;;116.60;78.85;;;;;;;3.18;75.88;97997.47;10430248;28;20074;-62
2022/03/02 08:44:12;;;;;;;67.35;46.28;;;;;;;2.88;72.89;97925.59;10460717;28;20063;-62
2022/03/02 08:49:13;;;;;;;56.08;37.40;;;;;;;3.18;74.23;97982.97;10428947;28;20067;-62
2022/03/02 08:54:13;;;;;;;58.28;37.13;;;;;;;3.29;73.58;97979.88;10429393;28;20063;-63
2022/03/02 08:59:14;;;;;;;50.83;36.20;;;;;;;3.51;73.17;97961.75;10428564;28;20060;-63
2022/03/02 09:04:16;;;;;;;59.83;40.88;;;;;;;3.95;70.99;97981.84;10433069;28;20048;-63
2022/03/02 09:09:16;;;;;;;55.20;34.33;;;;;;;3.79;69.93;97975.41;10438230;28;20470;-63
2022/03/02 09:14:17;;;;;;;50.15;33.30;;;;;;;3.50;69.79;97905.28;10442222;28;20054;-63
2022/03/02 09:19:17;;;;;;;68.13;46.60;;;;;;;4.00;69.99;97967.44;10451068;23;20123;-63
2022/03/02 09:24:17;;;;;;;48.47;34.33;;;;;;;3.85;68.84;97932.81;10334836;28;20068;-63
2022/03/02 09:29:17;;;;;;;45.42;31.08;;;;;;;4.21;68.41;97954.31;10334911;28;20060;-63
2022/03/02 09:34:24;;;;;;;44.92;30.63;;;;;;;4.35;66.66;97931.56;10334874;28;20513;-63
2022/03/02 09:39:24;;;;;;;44.72;31.30;;;;;;;4.72;65.29;97929.09;10334120;28;20068;-63
2022/03/02 09:44:30;;;;;;;37.75;28.10;;;;;;;4.57;63.95;97910.75;10334353;28;20063;-63
2022/03/02 09:49:30;;;;;;;41.42;29.40;;;;;;;4.95;65.04;97936.56;10333994;28;20060;-63
2022/03/02 09:54:36;;;;;;;55.20;36.80;;;;;;;5.32;67.17;97927.09;10334228;28;20045;-63
2022/03/02 09:59:38;;;;;;;50.55;35.45;;;;;;;5.62;66.20;97915.75;10333627;28;20459;-63
2022/03/02 10:04:40;;;;;;;42.20;31.27;;;;;;;5.55;64.80;97897.63;10333543;28;20131;-63
2022/03/02 10:09:39;;;;;;;44.33;24.58;;;;;;;5.96;64.41;97918.16;10333048;28;20072;-63
2022/03/02 10:14:38;;;;;;;33.90;22.13;;;;;;;5.90;62.46;97902.59;10314737;28;20135;-63
2022/03/02 10:19:53;;;;;;;28.95;20.70;;;;;;;5.88;62.65;97906.88;10332655;28;20444;-63
2022/03/02 10:25:02;;;;;;;16.35;11.20;;;;;;;5.54;62.50;97854.69;10332739;28;20557;-63
2022/03/02 10:30:07;;;;;;;19.67;12.40;;;;;;;5.62;59.18;97877.13;10332977;28;20503;-60
2022/03/02 10:35:08;;;;;;;13.50;9.38;;;;;;;4.92;61.05;97828.44;10331610;28;20303;-63
2022/03/02 10:40:18;;;;;;;12.90;8.95;;;;;;;4.92;62.27;97877.28;10332073;28;20435;-63
2022/03/02 10:45:21;;;;;;;17.67;12.30;;;;;;;4.55;60.86;97816.44;10332227;28;20090;-63
2022/03/02 10:50:24;;;;;;;138.75;52.42;;;;;;;4.90;61.93;97858.41;10332133;28;20065;-63
2022/03/02 10:55:24;;;;;;;23.02;15.00;;;;;;;5.03;63.34;97845.00;10331410;28;20068;-63
2022/03/02 11:00:24;;;;;;;20.33;14.07;;;;;;;4.89;61.35;97836.94;10331749;28;20065;-65
2022/03/02 11:05:25;;;;;;;26.23;19.17;;;;;;;4.78;62.09;97822.97;10331767;28;20057;-63
2022/03/02 11:10:31;;;;;;;22.13;15.02;;;;;;;4.82;58.26;97816.22;10331813;28;20057;-62
2022/03/02 11:15:46;;;;;;;20.10;14.80;;;;;;;4.86;59.83;97761.47;10329309;28;20077;-63
2022/03/02 11:21:04;;;;;;;25.67;18.48;;;;;;;4.81;57.07;97791.34;10331221;28;20095;-63
2022/03/02 11:26:07;;;;;;;22.00;14.57;;;;;;;4.64;58.39;97772.94;10330901;28;20084;-63
2022/03/02 11:31:08;;;;;;;22.55;14.35;;;;;;;4.55;59.58;97732.53;10331540;28;20489;-62
2022/03/02 11:36:10;;;;;;;20.83;14.20;;;;;;;4.91;60.93;97763.28;10329480;28;20666;-63
2022/03/02 11:41:13;;;;;;;25.90;18.75;;;;;;;5.11;59.67;97753.47;10331386;28;20514;-62
2022/03/02 11:46:15;;;;;;;17.75;12.98;;;;;;;5.50;59.32;97752.50;10330499;28;20072;-63
2022/03/02 11:51:21;;;;;;;18.75;12.50;;;;;;;5.76;56.68;97726.34;10339057;28;20073;-63
2022/03/02 11:56:23;;;;;;;16.60;11.77;;;;;;;5.76;56.69;97721.19;10336924;28;20573;-62
2022/03/02 12:01:23;;;;;;;19.48;15.15;;;;;;;5.61;57.88;97700.34;10338172;28;20561;-63
2022/03/02 12:06:22;;;;;;;16.88;12.15;;;;;;;5.78;54.74;97722.09;10338260;28;20072;-63
2022/03/02 12:11:34;;;;;;;18.17;12.48;;;;;;;5.38;55.64;97713.66;10337912;28;20069;-62
2022/03/02 12:16:38;;;;;;;17.77;12.10;;;;;;;4.81;56.81;97709.09;10338046;28;20107;-63
2022/03/02 12:21:37;;;;;;;14.45;10.93;;;;;;;4.33;58.35;97655.78;10335765;28;20097;-62
2022/03/02 12:26:38;;;;;;;16.55;11.52;;;;;;;4.27;57.41;97667.66;10336097;28;20049;-62
2022/03/02 12:31:37;;;;;;;17.40;11.38;;;;;;;4.14;57.01;97639.97;10337119;28;20065;-62
2022/03/02 12:36:36;;;;;;;36.95;17.13;;;;;;;4.87;54.24;97693.75;10337348;28;20025;-62
2022/03/02 12:41:38;;;;;;;12.85;6.88;;;;;;;4.80;50.15;97631.06;10337064;28;20065;-62
2022/03/02 12:46:38;;;;;;;11.50;7.72;;;;;;;5.43;53.40;97676.00;10336441;28;20068;-63
2022/03/02 12:51:37;;;;;;;;;;;;;;;5.90;54.39;97672.50;10318840;28;20495;-63
2022/03/02 12:56:37;;;;;;;12.70;8.85;;;;;;;5.52;52.21;97671.03;10336349;28;20484;-63
2022/03/02 13:01:36;;;;;;;17.48;11.25;;;;;;;5.19;52.78;97668.72;10334953;28;20064;-62
2022/03/02 13:06:38;;;;;;;11.88;8.43;;;;;;;4.98;50.20;97668.31;10336118;28;20517;-62
2022/03/02 13:11:37;;;;;;;11.48;7.45;;;;;;;4.91;50.97;97659.56;10335642;28;20347;-63
2022/03/02 13:16:38;;;;;;;12.02;6.88;;;;;;;5.09;52.25;97654.81;10335743;28;20049;-63
2022/03/02 13:21:37;;;;;;;13.25;8.20;;;;;;;5.36;53.60;97647.56;10317136;28;20533;-63
2022/03/02 13:26:38;;;;;;;14.98;8.98;;;;;;;5.73;53.64;97654.22;10334968;28;20087;-63
2022/03/02 13:32:00;;;;;;;14.52;8.73;;;;;;;5.49;52.11;97582.63;10335124;28;20583;-63
2022/03/02 13:37:02;;;;;;;42.40;23.10;;;;;;;5.54;52.27;97588.69;10316820;28;20154;-63
2022/03/02 13:42:03;;;;;;;13.02;7.85;;;;;;;5.69;49.57;97606.09;10334685;28;20060;-63
2022/03/02 13:47:10;;;;;;;19.42;12.02;;;;;;;5.84;49.50;97641.53;10334191;28;20072;-63
2022/03/02 13:52:09;;;;;;;16.67;8.80;;;;;;;5.62;47.17;97630.84;10334376;28;20340;-63
2022/03/02 13:57:28;;;;;;;17.00;10.20;;;;;;;5.47;46.18;97628.06;10333961;28;20029;-63
2022/03/02 14:02:35;;;;;;;11.98;8.40;;;;;;;5.06;49.06;97577.63;10333592;28;20346;-63
2022/03/02 14:07:35;;;;;;;15.07;9.40;;;;;;;5.12;48.50;97620.56;10333632;28;20073;-63
2022/03/02 14:12:50;;;;;;;11.15;7.32;;;;;;;4.88;47.02;97624.38;10333432;28;20065;-63
2022/03/02 14:17:49;;;;;;;16.10;9.40;;;;;;;4.78;47.12;97608.75;10332798;28;20105;-63
2022/03/02 14:23:01;;;;;;;12.05;8.07;;;;;;;4.62;48.31;97592.13;10332657;28;20029;-63
2022/03/02 14:28:07;;;;;;;14.27;9.27;;;;;;;4.79;48.17;97623.34;10332577;28;20071;-62
2022/03/02 14:33:17;;;;;;;14.73;9.43;;;;;;;4.78;49.58;97611.31;10332773;28;20061;-63
2022/03/02 14:38:16;;;;;;;30.85;21.35;;;;;;;4.80;50.38;97613.06;10333094;28;20060;-63
2022/03/02 14:43:19;;;;;;;22.05;15.18;;;;;;;4.86;50.10;97613.19;10332417;28;20072;-62
2022/03/02 14:48:26;;;;;;;13.27;7.88;;;;;;;4.60;49.52;97566.44;10331684;28;20141;-62
2022/03/02 14:53:27;;;;;;;20.70;13.48;;;;;;;4.83;51.33;97609.69;10332060;28;20500;-63
2022/03/02 14:58:31;;;;;;;18.67;11.30;;;;;;;4.01;52.25;97482.22;10332047;28;20072;-62
2022/03/02 15:03:33;;;;;;;22.95;14.43;;;;;;;4.81;52.86;97609.69;10332027;28;20061;-62
2022/03/02 15:08:40;;;;;;;26.25;15.90;;;;;;;4.77;53.56;97609.59;10331580;28;20075;-62
2022/03/02 15:19:00;;;;;;;59.42;28.80;;;;;;;4.41;54.59;97559.22;10331606;28;20090;-62
2022/03/02 15:24:00;;;;;;;27.88;15.75;;;;;;;4.66;53.69;97604.22;10337476;28;20083;-62
2022/03/02 15:29:03;;;;;;;18.13;11.82;;;;;;;4.56;53.85;97613.47;10339611;28;20061;-62
2022/03/02 15:34:20;;;;;;;18.45;12.68;;;;;;;4.29;53.29;97576.09;10339514;28;20061;-62
2022/03/02 15:39:37;;;;;;;19.77;13.73;;;;;;;4.27;53.20;97566.63;10339455;28;20065;-62
2022/03/02 15:44:36;;;;;;;18.77;13.00;;;;;;;4.44;53.61;97613.22;10339227;28;20053;-62
2022/03/02 15:49:46;;;;;;;25.83;15.30;;;;;;;3.99;53.31;97540.38;10338704;28;20120;-62
2022/03/02 15:54:56;;;;;;;18.13;12.68;;;;;;;4.36;53.54;97607.03;10337468;28;20142;-62
2022/03/02 16:00:09;;;;;;;18.90;12.98;;;;;;;4.01;53.32;97561.81;10338564;28;20068;-62
2022/03/02 16:05:11;;;;;;;40.55;25.10;;;;;;;4.18;54.89;97597.25;10338523;28;20076;-62
2022/03/02 16:10:10;;;;;;;82.45;43.78;;;;;;;3.86;56.88;97553.75;10338422;28;20366;-62
2022/03/02 16:15:12;;;;;;;77.35;46.75;;;;;;;3.72;58.54;97545.75;10337939;28;20495;-62
2022/03/02 16:20:13;;;;;;;48.45;32.40;;;;;;;3.96;59.75;97607.03;10337703;28;20081;-62
2022/03/02 16:25:46;;;;;;;67.78;48.55;;;;;;;3.92;60.35;97619.78;10318703;28;20428;-62
2022/03/02 16:30:48;;;;;;;44.65;29.70;;;;;;;3.58;61.05;97575.34;10338248;28;20068;-62
2022/03/02 16:35:48;;;;;;;43.65;28.33;;;;;;;3.75;60.93;97617.69;10336073;28;20537;-62
2022/03/02 16:40:49;;;;;;;48.85;33.33;;;;;;;3.66;61.52;97617.47;10337240;28;20065;-62
2022/03/02 16:45:50;;;;;;;48.15;35.20;;;;;;;3.58;62.08;97624.09;10336932;28;20076;-62
2022/03/02 16:50:50;;;;;;;50.95;34.85;;;;;;;3.29;62.57;97582.38;10334332;28;20163;-62
2022/03/02 16:55:48;;;;;;;;;;;;;;;3.46;62.12;97618.69;10336918;28;20064;-62
2022/03/02 17:00:47;;;;;;;42.42;27.63;;;;;;;3.39;62.52;97621.09;10336296;28;19909;-62
2022/03/02 17:05:48;;;;;;;43.58;28.08;;;;;;;3.35;63.27;97618.41;10335985;28;20072;-62
2022/03/02 17:10:49;;;;;;;37.85;24.55;;;;;;;2.80;63.48;97533.28;10335699;28;20068;-62
2022/03/02 17:15:49;;;;;;;33.38;23.73;;;;;;;2.81;63.68;97550.38;10335316;28;20064;-62
2022/03/02 17:20:48;;;;;;;37.70;25.33;;;;;;;3.11;64.52;97613.53;10335088;28;20142;-62
2022/03/02 17:25:49;;;;;;;35.70;23.63;;;;;;;3.07;64.75;97609.13;10316582;28;20077;-63
2022/03/02 17:30:48;;;;;;;37.63;25.17;;;;;;;2.90;65.06;97583.94;10335327;28;20076;-62
2022/03/02 17:35:47;;;;;;;42.58;28.40;;;;;;;3.02;65.19;97604.75;10334918;28;20035;-62
2022/03/02 17:40:46;;;;;;;49.53;31.83;;;;;;;2.80;64.76;97575.13;10316913;28;20040;-62
2022/03/02 17:45:45;;;;;;;63.95;41.20;;;;;;;2.95;65.40;97609.69;10333867;28;20429;-62
2022/03/02 17:50:44;;;;;;;54.38;35.25;;;;;;;2.93;65.77;97601.97;10316528;28;20131;-62
2022/03/02 17:55:43;;;;;;;44.75;29.80;;;;;;;2.71;65.83;97574.88;10334279;28;20022;-62
2022/03/02 18:00:44;;;;;;;53.92;34.33;;;;;;;2.86;65.67;97600.03;10333964;28;20071;-62
2022/03/02 18:05:43;;;;;;;42.50;29.40;;;;;;;2.39;66.99;97538.16;10333969;28;20061;-62
2022/03/02 18:10:42;;;;;;;45.75;27.75;;;;;;;2.59;66.57;97569.44;10333825;28;20033;-62
2022/03/02 18:15:42;;;;;;;53.25;35.30;;;;;;;2.69;67.18;97593.63;10333365;28;20057;-62
2022/03/02 18:20:41;;;;;;;;;;;;;;;2.63;67.70;97598.56;10334061;28;20088;-63
2022/03/02 18:25:40;;;;;;;38.58;25.55;;;;;;;2.55;67.51;97599.22;10332742;28;19917;-63
2022/03/02 18:30:39;;;;;;;;;;;;;;;2.48;68.52;97597.31;10333379;28;20052;-63
2022/03/02 18:35:38;;;;;;;41.45;27.58;;;;;;;2.42;68.35;97607.41;10315066;28;19909;-62
2022/03/02 18:40:38;;;;;;;39.22;24.35;;;;;;;2.38;68.83;97608.13;10314341;28;20522;-62
2022/03/02 18:45:37;;;;;;;42.25;27.50;;;;;;;2.04;68.55;97552.50;10330242;28;20061;-62
2022/03/02 18:50:36;;;;;;;39.55;26.05;;;;;;;2.33;68.74;97614.81;10332584;28;20037;-62
2022/03/02 18:55:35;;;;;;;34.83;24.95;;;;;;;2.34;69.04;97608.84;10313890;28;20565;-62
2022/03/02 19:00:34;;;;;;;37.20;24.52;;;;;;;1.70;68.98;97503.78;10332313;28;20053;-62
2022/03/02 19:05:34;;;;;;;37.38;26.15;;;;;;;1.92;69.03;97543.66;10331493;28;20029;-62
2022/03/02 19:10:33;;;;;;;67.88;37.05;;;;;;;2.33;69.41;97610.56;10331671;28;20067;-62
2022/03/02 19:15:32;;;;;;;56.70;32.53;;;;;;;1.99;69.70;97552.38;10326732;28;20064;-62
2022/03/02 19:20:31;;;;;;;43.58;29.05;;;;;;;1.72;69.95;97517.50;10317600;28;20085;-62
2022/03/02 19:25:34;;;;;;;45.97;29.05;;;;;;;2.17;69.96;97596.44;10288433;28;20038;-62
2022/03/02 19:30:34;;;;;;;53.60;33.03;;;;;;;2.17;69.82;97599.00;10291345;28;20069;-61
2022/03/02 19:35:33;;;;;;;42.30;29.92;;;;;;;2.17;69.16;97586.19;10309760;28;20478;-61
2022/03/02 19:40:32;;;;;;;43.25;27.77;;;;;;;1.98;69.46;97563.44;10330956;28;20486;-61
2022/03/02 19:45:31;;;;;;;49.75;30.73;;;;;;;1.56;69.42;97515.28;10330631;28;20069;-61
2022/03/02 19:50:34;;;;;;;45.20;29.00;;;;;;;1.79;69.28;97591.88;10330260;28;20083;-61
2022/03/02 19:55:36;;;;;;;46.22;31.60;;;;;;;1.54;69.96;97607.28;10330533;28;20057;-61
2022/03/02 20:00:35;;;;;;;59.15;36.92;;;;;;;0.78;70.69;97528.13;10312953;28;20127;-61
2022/03/02 20:05:34;;;;;;;;;;;;;;;1.14;71.27;97614.50;10326642;28;20108;-61
2022/03/02 20:10:33;;;;;;;70.00;40.20;;;;;;;0.66;71.95;97565.22;10336624;28;19963;-61
2022/03/02 20:15:33;;;;;;;61.00;35.28;;;;;;;0.79;72.22;97609.91;10337751;28;20029;-61
2022/03/02 20:20:36;;;;;;;49.05;29.80;;;;;;;0.79;72.74;97617.56;10336625;28;20084;-61
2022/03/02 20:25:36;;;;;;;59.70;35.10;;;;;;;0.74;73.32;97616.53;10319424;28;20072;-61
2022/03/02 20:30:39;;;;;;;76.25;44.67;;;;;;;0.72;73.58;97613.06;10335723;28;20069;-61
2022/03/02 20:35:39;;;;;;;89.40;51.38;;;;;;;0.71;73.90;97608.78;10332964;28;20514;-61
2022/03/02 20:40:39;;;;;;;77.72;46.92;;;;;;;0.31;74.19;97543.56;10318238;28;20146;-62
2022/03/02 20:45:42;;;;;;;76.00;46.03;;;;;;;0.62;74.69;97608.47;10336282;28;20064;-62
2022/03/02 20:50:44;;;;;;;73.38;46.25;;;;;;;0.58;74.95;97606.59;10318008;28;20073;-62
2022/03/02 20:55:43;;;;;;;67.72;44.55;;;;;;;0.58;74.78;97616.81;10335854;28;20326;-60
2022/03/02 21:00:44;;;;;;;79.72;48.33;;;;;;;0.29;74.62;97573.25;10333828;28;20065;-60
2022/03/02 21:05:45;;;;;;;74.50;44.42;;;;;;;0.26;75.01;97561.25;10332177;28;20109;-61
2022/03/02 21:10:44;;;;;;;77.07;43.67;;;;;;;0.55;74.82;97602.25;10333771;28;20069;-61
2022/03/02 21:15:43;;;;;;;68.05;44.28;;;;;;;0.54;75.17;97602.19;10335325;28;20093;-60
2022/03/02 21:20:42;;;;;;;84.35;46.65;;;;;;;0.32;75.30;97573.34;10315990;28;20077;-60
2022/03/02 21:25:41;;;;;;;77.18;44.70;;;;;;;0.41;75.51;97589.00;10317200;28;20064;-60
2022/03/02 21:30:41;;;;;;;69.75;40.47;;;;;;;0.55;75.53;97598.84;10335037;28;20064;-60
2022/03/02 21:35:41;;;;;;;80.10;48.35;;;;;;;0.59;75.49;97599.00;10331885;28;20060;-60
2022/03/02 21:40:40;;;;;;;75.05;45.63;;;;;;;0.66;75.64;97598.41;10332592;28;20073;-60
2022/03/02 21:45:39;;;;;;;58.35;36.08;;;;;;;0.60;75.45;97577.75;10316232;28;20588;-60
2022/03/02 21:50:38;;;;;;;52.30;33.03;;;;;;;0.75;75.40;97600.38;10316495;28;20806;-60
2022/03/02 21:55:39;;;;;;;54.28;34.20;;;;;;;0.78;74.97;97600.53;10334269;28;20089;-61
2022/03/02 22:00:39;;;;;;;50.25;32.88;;;;;;;0.84;74.74;97598.16;10331341;28;20060;-61
2022/03/02 22:05:38;;;;;;;68.65;40.13;;;;;;;0.89;74.91;97588.97;10333295;28;20068;-61
2022/03/02 22:10:37;;;;;;;67.57;39.70;;;;;;;0.94;75.01;97584.00;10328095;28;20510;-61
2022/03/02 22:15:40;;;;;;;53.38;31.50;;;;;;;0.84;74.77;97564.09;10332837;28;20033;-61
2022/03/02 22:20:39;;;;;;;52.58;32.40;;;;;;;0.98;74.42;97577.34;10306785;28;20073;-61
2022/03/02 22:25:38;;;;;;;65.32;39.90;;;;;;;0.83;74.45;97580.25;10292005;28;20038;-61
2022/03/02 22:30:37;;;;;;;60.17;35.83;;;;;;;0.80;74.72;97567.34;10289889;28;20034;-61
2022/03/02 22:35:36;;;;;;;54.22;35.33;;;;;;;0.94;74.44;97576.34;10292148;28;20396;-61
2022/03/02 22:40:37;;;;;;;40.60;25.73;;;;;;;0.99;73.99;97563.72;10288695;28;20064;-61
2022/03/02 22:45:36;;;;;;;38.38;21.75;;;;;;;1.01;73.38;97557.84;10289663;28;20104;-61
2022/03/02 22:50:35;;;;;;;59.13;37.17;;;;;;;0.95;73.43;97561.91;10290205;28;20652;-61
2022/03/02 22:55:34;;;;;;;63.13;39.38;;;;;;;0.95;73.69;97561.91;10291824;28;20491;-61
2022/03/02 23:00:48;;;;;;;72.50;43.70;;;;;;;0.86;74.18;97560.78;10291132;28;20041;-61
2022/03/02 23:16:22;;;;;;;40.22;24.77;;;;;;;0.43;74.93;97518.44;10287681;28;20069;-61
2022/03/02 23:21:22;;;;;;;45.97;27.27;;;;;;;0.69;74.96;97564.44;10266422;28;20054;-61
2022/03/02 23:26:21;;;;;;;40.15;26.92;;;;;;;0.71;74.52;97536.38;10246352;28;20081;-61